createdAt,value
2023-03-30T00:01:02.372Z,145511.00
2023-03-30T00:03:29.953Z,145497.63
2023-03-30T00:06:02.545Z,145497.63
2023-03-30T00:08:29.585Z,145470.91
2023-03-30T00:11:01.724Z,145487.88
2023-03-30T00:13:29.513Z,145514.59
2023-03-30T00:15:56.516Z,145456.34
2023-03-30T00:18:24.888Z,145512.19
2023-03-30T00:20:52.806Z,145524.31
2023-03-30T00:23:20.341Z,145519.47
2023-03-30T00:25:47.815Z,145453.91
2023-03-30T00:28:14.940Z,145502.50
2023-03-30T00:30:41.968Z,145475.78
2023-03-30T00:33:09.134Z,145449.03
2023-03-30T00:35:37.183Z,145428.38
2023-03-30T00:38:05.780Z,145441.75
2023-03-30T00:40:34.989Z,145447.84
2023-03-30T00:43:05.778Z,145434.47
2023-03-30T00:45:34.250Z,145400.47
2023-03-30T00:48:05.407Z,145432.03
2023-03-30T00:50:44.826Z,145434.47
2023-03-30T00:53:21.312Z,145444.19
2023-03-30T00:55:50.933Z,145459.97
2023-03-30T00:58:19.733Z,145468.47
2023-03-30T01:00:47.313Z,145494.00
2023-03-30T01:03:22.686Z,145468.47
2023-03-30T01:05:52.093Z,145466.06
2023-03-30T01:08:20.375Z,145456.34
2023-03-30T01:10:54.036Z,145416.28
2023-03-30T01:13:22.811Z,145395.63
2023-03-30T01:16:02.544Z,145434.47
2023-03-30T01:18:54.803Z,145467.25
2023-03-30T01:22:04.548Z,145429.63
2023-03-30T01:24:48.963Z,145463.63
2023-03-30T01:27:45.941Z,145434.47
2023-03-30T01:30:31.443Z,145429.63
2023-03-30T01:33:22.697Z,145439.34
2023-03-30T01:36:17.684Z,145393.22
2023-03-30T01:38:44.779Z,145439.34
2023-03-30T01:41:22.881Z,145453.91
2023-03-30T01:43:58.523Z,145466.06
2023-03-30T01:46:31.552Z,145492.78
2023-03-30T01:49:25.367Z,145473.31
2023-03-30T01:52:02.650Z,145480.63
2023-03-30T01:54:36.854Z,145447.84
2023-03-30T01:57:15.491Z,145481.81
2023-03-30T01:59:42.965Z,145450.25
2023-03-30T02:02:13.463Z,145412.63
2023-03-30T02:04:45.564Z,145425.97
2023-03-30T02:07:23.051Z,145406.56
2023-03-30T02:09:53.664Z,145432.03
2023-03-30T02:12:22.143Z,145415.03
2023-03-30T02:14:49.711Z,145425.97
2023-03-30T02:17:23.029Z,145463.63
2023-03-30T02:19:51.251Z,145468.47
2023-03-30T02:22:20.183Z,145467.25
2023-03-30T02:24:51.620Z,145445.41
2023-03-30T02:27:19.587Z,145514.59
2023-03-30T02:29:49.047Z,145546.19
2023-03-30T02:32:20.189Z,145570.50
2023-03-30T02:35:15.900Z,145611.81
2023-03-30T02:37:50.662Z,145596.00
2023-03-30T02:40:33.011Z,145767.41
2023-03-30T02:43:26.902Z,145828.16
2023-03-30T02:46:21.938Z,145896.25
2023-03-30T02:49:15.742Z,145910.84
2023-03-30T02:52:05.157Z,145949.78
2023-03-30T02:54:50.247Z,145935.19
2023-03-30T02:57:46.562Z,146038.53
2023-03-30T03:00:44.526Z,146076.28
2023-03-30T03:03:38.490Z,146071.38
2023-03-30T03:06:09.339Z,146094.53
2023-03-30T03:08:43.694Z,146100.63
2023-03-30T03:11:13.693Z,146098.19
2023-03-30T03:13:42.227Z,146124.97
2023-03-30T03:16:13.997Z,146139.56
2023-03-30T03:18:53.845Z,146120.09
2023-03-30T03:21:20.975Z,146143.22
2023-03-30T03:23:48.504Z,146126.16
2023-03-30T03:26:19.943Z,146173.66
2023-03-30T03:28:47.069Z,146187.03
2023-03-30T03:31:14.195Z,146174.84
2023-03-30T03:33:41.412Z,146160.25
2023-03-30T03:36:17.759Z,146195.56
2023-03-30T03:38:49.158Z,146188.25
2023-03-30T03:41:16.861Z,146194.31
2023-03-30T03:43:44.731Z,146156.59
2023-03-30T03:46:12.211Z,146161.47
2023-03-30T03:48:40.480Z,146151.72
2023-03-30T03:51:07.919Z,146117.69
2023-03-30T03:53:35.661Z,146151.72
2023-03-30T03:56:07.499Z,146139.56
2023-03-30T03:58:34.687Z,146122.56
2023-03-30T04:01:03.362Z,146167.53
2023-03-30T04:03:30.846Z,146176.06
2023-03-30T04:06:00.346Z,146176.06
2023-03-30T04:08:29.026Z,146165.13
2023-03-30T04:11:11.708Z,146180.91
2023-03-30T04:13:57.265Z,146200.44
2023-03-30T04:16:36.064Z,146206.50
2023-03-30T04:19:25.346Z,146239.34
2023-03-30T04:22:13.630Z,146273.44
2023-03-30T04:25:00.173Z,146273.44
2023-03-30T04:27:51.214Z,146246.66
2023-03-30T04:30:41.388Z,146256.41
2023-03-30T04:33:28.909Z,146227.22
2023-03-30T04:36:17.777Z,146224.75
2023-03-30T04:39:06.465Z,146230.81
2023-03-30T04:42:02.555Z,146168.78
2023-03-30T04:44:50.583Z,146219.88
2023-03-30T04:47:18.142Z,146240.56
2023-03-30T04:50:03.985Z,146252.75
2023-03-30T04:52:49.998Z,146236.94
2023-03-30T04:55:35.840Z,146217.44
2023-03-30T04:58:21.535Z,146114.03
2023-03-30T05:01:03.982Z,146176.06
2023-03-30T05:04:00.412Z,146257.59
2023-03-30T05:06:51.638Z,146264.91
2023-03-30T05:09:40.794Z,146285.59
2023-03-30T05:12:16.824Z,146275.84
2023-03-30T05:15:10.082Z,146241.81
2023-03-30T05:18:09.618Z,146300.25
2023-03-30T05:21:00.975Z,146307.50
2023-03-30T05:23:50.933Z,146229.63
2023-03-30T05:26:36.702Z,146290.47
2023-03-30T05:29:22.442Z,146302.66
2023-03-30T05:32:05.033Z,146317.25
2023-03-30T05:34:46.892Z,146305.09
2023-03-30T05:37:31.873Z,146313.59
2023-03-30T05:40:18.170Z,146306.31
2023-03-30T05:43:05.415Z,146291.72
2023-03-30T05:45:51.094Z,146268.59
2023-03-30T05:48:31.427Z,146298.97
2023-03-30T05:51:08.265Z,146314.84
2023-03-30T05:53:58.734Z,146305.09
2023-03-30T05:56:54.743Z,146311.19
2023-03-30T05:59:29.922Z,146324.56
2023-03-30T06:02:12.699Z,146271.00
2023-03-30T06:04:40.088Z,146303.84
2023-03-30T06:07:07.902Z,146294.13
2023-03-30T06:09:35.075Z,146297.78
2023-03-30T06:12:09.451Z,146302.66
2023-03-30T06:14:37.431Z,146323.38
2023-03-30T06:17:31.464Z,146318.50
2023-03-30T06:19:58.868Z,146291.72
2023-03-30T06:22:27.391Z,146308.72
2023-03-30T06:25:10.571Z,146264.91
2023-03-30T06:27:37.643Z,146292.91
2023-03-30T06:30:06.122Z,146251.53
2023-03-30T06:32:33.559Z,146267.34
2023-03-30T06:35:00.713Z,146281.97
2023-03-30T06:37:29.236Z,146301.44
2023-03-30T06:39:56.400Z,146266.13
2023-03-30T06:42:26.471Z,146256.41
2023-03-30T06:45:14.655Z,146300.25
2023-03-30T06:47:42.399Z,146312.38
2023-03-30T06:50:10.122Z,146295.31
2023-03-30T06:52:52.568Z,146302.66
2023-03-30T06:55:21.827Z,146298.97
2023-03-30T06:57:48.897Z,146339.16
2023-03-30T07:00:18.963Z,146353.78
2023-03-30T07:03:04.420Z,146367.16
2023-03-30T07:05:39.341Z,146352.56
2023-03-30T07:08:15.658Z,146323.38
2023-03-30T07:10:49.446Z,146300.25
2023-03-30T07:13:17.532Z,146378.16
2023-03-30T07:15:47.761Z,146378.16
2023-03-30T07:18:14.962Z,146393.97
2023-03-30T07:20:44.612Z,146425.66
2023-03-30T07:23:21.827Z,146422.00
2023-03-30T07:25:51.676Z,146478.03
2023-03-30T07:28:28.547Z,146468.28
2023-03-30T07:31:06.233Z,146452.47
2023-03-30T07:33:34.806Z,146480.47
2023-03-30T07:36:04.195Z,146482.94
2023-03-30T07:38:33.226Z,146502.41
2023-03-30T07:41:00.820Z,146515.81
2023-03-30T07:43:29.875Z,146577.91
2023-03-30T07:45:57.653Z,146588.91
2023-03-30T07:48:33.810Z,146604.72
2023-03-30T07:51:09.094Z,146634.00
2023-03-30T07:53:42.090Z,146577.91
2023-03-30T07:56:17.344Z,146548.69
2023-03-30T07:58:48.108Z,146536.50
2023-03-30T08:01:17.619Z,146570.63
2023-03-30T08:04:13.776Z,146675.41
2023-03-30T08:06:41.640Z,146716.91
2023-03-30T08:09:09.277Z,146726.63
2023-03-30T08:11:36.696Z,146802.19
2023-03-30T08:14:05.037Z,146810.72
2023-03-30T08:16:32.217Z,146800.97
2023-03-30T08:18:59.456Z,146759.53
2023-03-30T08:21:27.050Z,146768.06
2023-03-30T08:23:59.160Z,146794.91
2023-03-30T08:26:26.765Z,146898.50
2023-03-30T08:28:54.447Z,146979.00
2023-03-30T08:31:21.927Z,146960.72
2023-03-30T08:33:49.117Z,146879.00
2023-03-30T08:36:16.351Z,146870.47
2023-03-30T08:38:45.097Z,146891.22
2023-03-30T08:41:30.162Z,146914.38
2023-03-30T08:44:15.903Z,146892.41
2023-03-30T08:46:44.454Z,146813.19
2023-03-30T08:49:17.834Z,146848.56
2023-03-30T08:51:46.925Z,146863.19
2023-03-30T08:54:20.236Z,146907.03
2023-03-30T08:57:26.261Z,146926.59
2023-03-30T09:00:12.858Z,146879.00
2023-03-30T09:02:44.500Z,146857.06
2023-03-30T09:05:19.029Z,146890.00
2023-03-30T09:08:21.411Z,146902.16
2023-03-30T09:10:56.380Z,146880.22
2023-03-30T09:13:28.204Z,146916.78
2023-03-30T09:16:21.083Z,146903.41
2023-03-30T09:18:54.703Z,146904.63
2023-03-30T09:21:24.939Z,146882.66
2023-03-30T09:23:55.044Z,146904.63
2023-03-30T09:26:57.440Z,146868.03
2023-03-30T09:29:43.695Z,146799.78
2023-03-30T09:32:29.311Z,146835.13
2023-03-30T09:35:04.491Z,146833.88
2023-03-30T09:37:32.106Z,146847.31
2023-03-30T09:40:13.864Z,146868.03
2023-03-30T09:42:53.080Z,147021.72
2023-03-30T09:45:25.249Z,147198.66
2023-03-30T09:47:53.625Z,147187.69
2023-03-30T09:50:29.165Z,147164.50
2023-03-30T09:53:04.980Z,147030.28
2023-03-30T09:55:35.181Z,146946.09
2023-03-30T09:58:17.442Z,146832.69
2023-03-30T10:00:45.686Z,146624.19
2023-03-30T10:03:21.824Z,146383.03
2023-03-30T10:06:13.159Z,146402.50
2023-03-30T10:08:50.881Z,146325.78
2023-03-30T10:11:30.800Z,146224.75
2023-03-30T10:13:58.269Z,146243.00
2023-03-30T10:16:28.381Z,146264.91
2023-03-30T10:19:00.258Z,146212.56
2023-03-30T10:21:36.003Z,146223.53
2023-03-30T10:24:08.079Z,146262.47
2023-03-30T10:26:38.314Z,146234.47
2023-03-30T10:29:08.010Z,146336.75
2023-03-30T10:31:37.365Z,146436.63
2023-03-30T10:34:14.474Z,146456.13
2023-03-30T10:36:41.516Z,146424.47
2023-03-30T10:39:15.532Z,146435.41
2023-03-30T10:41:43.152Z,146429.34
2023-03-30T10:44:31.893Z,146470.75
2023-03-30T10:47:41.091Z,146409.88
2023-03-30T10:50:54.958Z,146129.81
2023-03-30T10:53:30.706Z,145938.78
2023-03-30T10:56:04.059Z,145856.13
2023-03-30T10:58:39.950Z,145774.66
2023-03-30T11:01:26.352Z,145723.63
2023-03-30T11:04:16.576Z,145616.69
2023-03-30T11:06:53.546Z,145667.69
2023-03-30T11:09:27.963Z,145695.63
2023-03-30T11:12:01.457Z,145621.53
2023-03-30T11:14:46.437Z,145661.63
2023-03-30T11:17:26.759Z,145636.09
2023-03-30T11:19:57.275Z,145640.97
2023-03-30T11:22:47.267Z,145626.38
2023-03-30T11:25:27.521Z,145636.09
2023-03-30T11:28:06.673Z,145605.72
2023-03-30T11:30:35.284Z,145602.09
2023-03-30T11:33:15.630Z,145699.34
2023-03-30T11:35:48.141Z,145732.16
2023-03-30T11:38:24.585Z,145695.63
2023-03-30T11:40:58.323Z,145727.28
2023-03-30T11:43:29.519Z,145796.56
2023-03-30T11:46:06.684Z,145848.84
2023-03-30T11:48:55.938Z,145901.09
2023-03-30T11:51:35.521Z,145910.84
2023-03-30T11:54:26.069Z,145893.78
2023-03-30T11:57:13.128Z,145943.66
2023-03-30T12:00:08.190Z,145942.44
2023-03-30T12:02:51.147Z,146022.75
2023-03-30T12:05:53.443Z,146132.28
2023-03-30T12:08:43.843Z,146217.44
2023-03-30T12:11:27.347Z,146317.25
2023-03-30T12:13:54.798Z,146369.63
2023-03-30T12:16:40.250Z,146475.59
2023-03-30T12:19:15.481Z,146422.00
2023-03-30T12:22:11.720Z,146383.03
2023-03-30T12:24:50.076Z,146252.75
2023-03-30T12:27:17.144Z,146307.50
2023-03-30T12:32:29.076Z,146383.03
2023-03-30T12:34:57.987Z,146358.63
2023-03-30T12:37:48.020Z,146359.88
2023-03-30T12:40:22.300Z,146339.16
2023-03-30T12:43:08.974Z,146359.88
2023-03-30T12:45:48.055Z,146283.19
2023-03-30T12:48:23.170Z,146390.31
2023-03-30T12:50:53.169Z,146453.66
2023-03-30T12:53:51.042Z,146426.88
2023-03-30T12:56:32.033Z,146484.13
2023-03-30T12:59:17.810Z,146527.97
2023-03-30T13:02:03.852Z,146424.47
2023-03-30T13:04:39.901Z,146499.94
2023-03-30T13:07:14.205Z,146507.28
2023-03-30T13:09:59.881Z,146564.50
2023-03-30T13:12:27.099Z,146552.34
2023-03-30T13:15:37.849Z,146527.97
2023-03-30T13:18:26.484Z,146502.41
2023-03-30T13:20:56.220Z,146509.69
2023-03-30T13:23:23.283Z,146495.09
2023-03-30T13:26:34.724Z,146564.50
2023-03-30T13:29:11.164Z,146663.22
2023-03-30T13:31:57.727Z,146724.19
2023-03-30T13:35:03.018Z,146679.03
2023-03-30T13:37:48.585Z,146775.41
2023-03-30T13:40:39.591Z,146751.00
2023-03-30T13:43:20.997Z,146776.63
2023-03-30T13:46:05.825Z,146953.38
2023-03-30T13:49:13.594Z,147031.47
2023-03-30T13:51:44.929Z,146964.38
2023-03-30T13:54:21.293Z,146982.69
2023-03-30T13:56:52.082Z,146975.34
2023-03-30T13:59:26.146Z,146846.09
2023-03-30T14:01:56.660Z,146833.88
2023-03-30T14:04:30.143Z,146872.91
2023-03-30T14:06:58.368Z,146836.34
2023-03-30T14:09:28.007Z,146782.69
2023-03-30T14:12:00.781Z,146675.41
2023-03-30T14:14:39.749Z,146605.94
2023-03-30T14:17:22.121Z,146597.44
2023-03-30T14:20:21.426Z,146496.28
2023-03-30T14:22:50.341Z,146536.50
2023-03-30T14:25:32.199Z,146510.94
2023-03-30T14:28:20.139Z,146495.09
2023-03-30T14:30:53.221Z,146470.75
2023-03-30T14:33:22.182Z,146373.28
2023-03-30T14:36:00.086Z,146076.28
2023-03-30T14:38:34.574Z,145926.66
2023-03-30T14:41:01.637Z,145876.81
2023-03-30T14:43:31.613Z,145801.41
2023-03-30T14:46:03.626Z,145791.69
2023-03-30T14:48:33.415Z,145760.09
2023-03-30T14:51:09.476Z,145823.31
2023-03-30T14:53:36.806Z,145835.47
2023-03-30T14:56:04.984Z,145891.38
2023-03-30T14:58:32.634Z,145869.50
2023-03-30T15:01:03.664Z,145942.44
2023-03-30T15:03:34.782Z,145977.72
2023-03-30T15:06:04.687Z,146041.00
2023-03-30T15:08:36.103Z,146016.63
2023-03-30T15:11:09.633Z,146078.72
2023-03-30T15:13:58.857Z,146079.94
2023-03-30T15:16:32.875Z,146083.59
2023-03-30T15:19:04.505Z,146095.78
2023-03-30T15:21:35.706Z,146129.81
2023-03-30T15:24:07.019Z,146096.97
2023-03-30T15:26:34.944Z,146121.28
2023-03-30T15:29:04.303Z,146163.91
2023-03-30T15:31:31.566Z,146216.22
2023-03-30T15:34:01.848Z,146188.25
2023-03-30T15:36:39.813Z,146210.16
2023-03-30T15:39:36.532Z,146222.28
2023-03-30T15:42:05.791Z,146222.28
2023-03-30T15:44:42.866Z,146215.03
2023-03-30T15:47:19.795Z,146215.03
2023-03-30T15:49:50.569Z,146216.22
2023-03-30T15:52:34.223Z,146194.31
2023-03-30T15:55:12.016Z,146176.06
2023-03-30T15:57:45.945Z,146301.44
2023-03-30T16:00:20.978Z,146307.50
2023-03-30T16:02:57.659Z,146221.09
2023-03-30T16:05:30.790Z,146161.47
2023-03-30T16:07:58.154Z,146123.75
2023-03-30T16:10:28.749Z,146126.16
2023-03-30T16:12:57.211Z,146122.56
2023-03-30T16:15:30.365Z,146083.59
2023-03-30T16:17:57.798Z,146053.13
2023-03-30T16:20:28.654Z,146053.13
2023-03-30T16:22:56.780Z,146057.97
2023-03-30T16:25:41.719Z,146258.81
2023-03-30T16:28:17.572Z,146194.31
2023-03-30T16:30:48.007Z,146081.19
2023-03-30T16:33:15.093Z,146056.78
2023-03-30T16:35:42.198Z,146033.66
2023-03-30T16:38:14.999Z,146071.38
2023-03-30T16:40:45.238Z,146067.75
2023-03-30T16:43:12.314Z,146020.28
2023-03-30T16:45:39.513Z,146042.19
2023-03-30T16:48:06.734Z,146217.44
2023-03-30T16:50:43.280Z,146263.72
2023-03-30T16:53:11.044Z,146273.44
2023-03-30T16:55:39.445Z,146278.31
2023-03-30T16:58:08.619Z,146193.09
2023-03-30T17:00:50.862Z,146138.34
2023-03-30T17:03:20.255Z,146039.75
2023-03-30T17:05:51.263Z,146095.78
2023-03-30T17:08:24.478Z,146139.56
2023-03-30T17:10:53.322Z,146107.91
2023-03-30T17:13:20.837Z,146034.88
2023-03-30T17:15:47.983Z,146015.41
2023-03-30T17:18:17.798Z,145924.22
2023-03-30T17:20:51.979Z,145937.59
2023-03-30T17:23:20.333Z,145983.81
2023-03-30T17:25:49.346Z,145986.25
2023-03-30T17:28:21.792Z,145944.91
2023-03-30T17:30:50.374Z,145920.56
2023-03-30T17:33:17.841Z,145910.84
2023-03-30T17:35:49.504Z,145933.94
2023-03-30T17:38:17.571Z,145916.94
2023-03-30T17:40:46.008Z,145932.72
2023-03-30T17:43:14.323Z,145923.00
2023-03-30T17:45:41.994Z,145913.28
2023-03-30T17:48:18.984Z,145952.19
2023-03-30T17:50:50.639Z,145915.69
2023-03-30T17:53:20.061Z,145942.44
2023-03-30T17:55:49.041Z,145950.97
2023-03-30T17:58:34.814Z,145941.25
2023-03-30T18:01:05.172Z,145959.50
2023-03-30T18:03:34.068Z,145915.69
2023-03-30T18:06:02.260Z,145933.94
2023-03-30T18:08:29.428Z,145937.59
2023-03-30T18:11:00.473Z,145957.03
2023-03-30T18:13:29.388Z,145918.16
2023-03-30T18:15:58.425Z,145961.91
2023-03-30T18:18:28.430Z,145983.81
2023-03-30T18:21:03.077Z,145980.13
2023-03-30T18:23:33.091Z,145958.28
2023-03-30T18:26:01.571Z,145943.66
2023-03-30T18:28:31.264Z,145974.06
2023-03-30T18:31:00.466Z,145986.25
2023-03-30T18:33:28.230Z,145978.94
2023-03-30T18:36:04.667Z,145923.00
2023-03-30T18:38:33.142Z,145935.19
2023-03-30T18:41:01.372Z,145986.25
2023-03-30T18:43:28.754Z,145998.38
2023-03-30T18:46:00.038Z,145991.13
2023-03-30T18:48:28.186Z,145988.66
2023-03-30T18:50:56.229Z,145978.94
2023-03-30T18:53:25.710Z,145992.31
2023-03-30T18:55:54.705Z,145998.38
2023-03-30T18:58:27.213Z,146000.84
2023-03-30T19:00:55.361Z,145925.41
2023-03-30T19:03:24.329Z,145947.31
2023-03-30T19:05:51.645Z,145914.50
2023-03-30T19:08:21.515Z,145959.50
2023-03-30T19:10:51.084Z,145999.63
2023-03-30T19:13:20.304Z,145980.13
2023-03-30T19:15:49.542Z,145978.94
2023-03-30T19:18:17.857Z,145950.97
2023-03-30T19:20:46.054Z,145893.78
2023-03-30T19:23:14.709Z,145920.56
2023-03-30T19:25:43.080Z,145940.03
2023-03-30T19:28:11.951Z,145961.91
2023-03-30T19:30:40.076Z,145929.06
2023-03-30T19:33:12.051Z,145918.16
2023-03-30T19:35:46.248Z,145954.63
2023-03-30T19:38:14.618Z,145936.38
2023-03-30T19:40:41.974Z,145971.66
2023-03-30T19:43:09.598Z,145961.91
2023-03-30T19:45:36.708Z,145985.00
2023-03-30T19:48:04.072Z,145986.25
2023-03-30T19:50:31.659Z,145981.38
2023-03-30T19:52:59.340Z,145988.66
2023-03-30T19:55:27.117Z,146000.84
2023-03-30T19:57:54.388Z,145948.50
2023-03-30T20:00:21.539Z,145961.91
2023-03-30T20:02:51.274Z,145944.91
2023-03-30T20:05:20.705Z,145903.56
2023-03-30T20:07:48.563Z,145968.00
2023-03-30T20:10:20.267Z,145948.50
2023-03-30T20:12:48.277Z,145942.44
2023-03-30T20:15:15.577Z,145857.31
2023-03-30T20:17:43.009Z,145923.00
2023-03-30T20:20:12.566Z,145932.72
2023-03-30T20:22:42.383Z,145908.44
2023-03-30T20:25:12.342Z,145924.22
2023-03-30T20:27:40.169Z,145932.72
2023-03-30T20:30:08.211Z,145940.03
2023-03-30T20:32:35.587Z,145901.09
2023-03-30T20:35:03.888Z,145905.97
2023-03-30T20:37:31.218Z,145954.63
2023-03-30T20:40:09.842Z,145947.31
2023-03-30T20:42:39.782Z,145948.50
2023-03-30T20:45:08.696Z,145920.56
2023-03-30T20:47:36.157Z,145868.28
2023-03-30T20:50:04.684Z,145961.91
2023-03-30T20:52:31.897Z,145898.69
2023-03-30T20:54:59.609Z,145943.66
2023-03-30T20:57:27.169Z,145920.56
2023-03-30T20:59:54.371Z,145903.56
2023-03-30T21:02:21.631Z,145840.34
2023-03-30T21:04:49.471Z,145857.31
2023-03-30T21:07:17.757Z,145896.25
2023-03-30T21:09:44.985Z,145907.19
2023-03-30T21:12:12.121Z,145825.75
2023-03-30T21:14:39.285Z,145805.06
2023-03-30T21:17:06.642Z,145823.31
2023-03-30T21:19:33.874Z,145864.63
2023-03-30T21:22:01.071Z,145891.38
2023-03-30T21:24:29.137Z,145904.78
2023-03-30T21:26:56.232Z,145886.53
2023-03-30T21:29:23.597Z,145912.03
2023-03-30T21:31:50.889Z,145912.03
2023-03-30T21:34:18.724Z,145907.19
2023-03-30T21:36:46.486Z,145916.94
2023-03-30T21:39:13.816Z,145844.00
2023-03-30T21:41:41.070Z,145891.38
2023-03-30T21:44:08.310Z,145837.88
2023-03-30T21:46:35.703Z,145834.22
2023-03-30T21:49:03.089Z,145871.94
2023-03-30T21:51:31.573Z,145831.81
2023-03-30T21:53:59.305Z,145847.59
2023-03-30T21:56:29.700Z,145824.50
2023-03-30T21:58:57.994Z,145823.31
2023-03-30T22:01:25.350Z,145803.88
2023-03-30T22:03:55.040Z,145794.16
2023-03-30T22:06:22.995Z,145791.69
2023-03-30T22:08:50.664Z,145716.38
2023-03-30T22:11:26.651Z,145784.38
2023-03-30T22:13:55.085Z,145750.38
2023-03-30T22:16:28.370Z,145781.97
2023-03-30T22:18:55.907Z,145733.34
2023-03-30T22:21:34.466Z,145728.50
2023-03-30T22:24:04.732Z,145757.69
2023-03-30T22:26:32.078Z,145760.09
2023-03-30T22:28:59.522Z,145769.81
2023-03-30T22:31:27.587Z,145740.66
2023-03-30T22:33:55.456Z,145774.66
2023-03-30T22:36:26.331Z,145794.16
2023-03-30T22:38:55.848Z,145794.16
2023-03-30T22:41:26.694Z,145828.16
2023-03-30T22:43:56.091Z,145816.00
2023-03-30T22:46:24.783Z,145835.47
2023-03-30T22:48:52.434Z,145812.38
2023-03-30T22:51:26.374Z,145774.66
2023-03-30T22:53:59.191Z,145800.22
2023-03-30T22:56:28.013Z,145774.66
2023-03-30T22:58:55.309Z,145752.81
2023-03-30T23:01:22.474Z,145740.66
2023-03-30T23:03:50.308Z,145794.16
2023-03-30T23:06:19.148Z,145801.41
2023-03-30T23:08:48.191Z,145774.66
2023-03-30T23:11:15.343Z,145767.41
2023-03-30T23:13:42.436Z,145777.13
2023-03-30T23:16:10.430Z,145769.81
2023-03-30T23:18:38.157Z,145757.69
2023-03-30T23:21:06.349Z,145623.94
2023-03-30T23:23:35.672Z,145744.31
2023-03-30T23:26:09.164Z,145737.00
2023-03-30T23:28:38.972Z,145727.28
2023-03-30T23:31:17.816Z,145712.72
2023-03-30T23:33:45.450Z,145716.38
2023-03-30T23:36:19.204Z,145713.91
2023-03-30T23:38:49.575Z,145713.91
2023-03-30T23:41:18.408Z,145655.53
2023-03-30T23:43:46.686Z,145723.63
2023-03-30T23:46:15.347Z,145701.75
2023-03-30T23:48:42.787Z,145684.72
2023-03-30T23:51:09.926Z,145660.38
2023-03-30T23:53:40.006Z,145668.91
2023-03-30T23:56:17.322Z,145716.38
2023-03-30T23:58:44.880Z,145648.28
